createdAt,value
2019-02-17T00:02:33.750Z,-1.4
2019-02-17T00:07:33.559Z,-1.4
2019-02-17T00:12:33.505Z,-1.5
2019-02-17T00:17:33.733Z,-1.5
2019-02-17T00:22:33.686Z,-1.6
2019-02-17T00:27:33.658Z,-1.6
2019-02-17T00:32:33.732Z,-1.6
2019-02-17T00:37:33.524Z,-1.7
2019-02-17T00:42:35.614Z,-1.7
2019-02-17T00:47:35.611Z,-1.7
2019-02-17T00:52:35.633Z,-1.8
2019-02-17T00:57:35.861Z,-1.8
2019-02-17T01:02:35.747Z,-1.8
2019-02-17T01:07:35.634Z,-1.9
2019-02-17T01:12:35.655Z,-1.9
2019-02-17T01:17:35.646Z,-1.9
2019-02-17T01:22:35.667Z,-2
2019-02-17T01:27:35.654Z,-2
2019-02-17T01:32:35.600Z,-2
2019-02-17T01:37:35.597Z,-2
2019-02-17T01:42:35.860Z,-2.1
2019-02-17T01:47:35.643Z,-2.1
2019-02-17T01:52:35.667Z,-2.2
2019-02-17T01:57:35.676Z,-2.2
2019-02-17T02:02:35.625Z,-2.2
2019-02-17T02:07:35.779Z,-2.2
2019-02-17T02:12:35.690Z,-2.3
2019-02-17T02:17:35.888Z,-2.3
2019-02-17T02:22:35.779Z,-2.4
2019-02-17T02:27:35.818Z,-2.5
2019-02-17T02:32:35.896Z,-2.5
2019-02-17T02:37:35.825Z,-2.5
2019-02-17T02:42:35.692Z,-2.5
2019-02-17T02:47:35.686Z,-2.6
2019-02-17T02:52:35.676Z,-2.6
2019-02-17T02:57:35.685Z,-2.6
2019-02-17T03:02:35.888Z,-2.6
2019-02-17T03:07:35.782Z,-2.7
2019-02-17T03:12:35.855Z,-2.7
2019-02-17T03:17:35.895Z,-2.8
2019-02-17T03:22:35.815Z,-2.8
2019-02-17T03:27:35.813Z,-2.8
2019-02-17T03:32:35.705Z,-2.9
2019-02-17T03:37:35.697Z,-2.9
2019-02-17T03:42:35.718Z,-3
2019-02-17T03:47:35.708Z,-3
2019-02-17T03:52:35.743Z,-3
2019-02-17T03:57:35.705Z,-3.1
2019-02-17T04:02:35.746Z,-3.1
2019-02-17T04:07:35.723Z,-3.1
2019-02-17T04:12:35.723Z,-3.2
2019-02-17T04:17:35.744Z,-3.2
2019-02-17T04:22:35.733Z,-3.3
2019-02-17T04:27:35.856Z,-3.3
2019-02-17T04:32:35.755Z,-3.3
2019-02-17T04:37:35.742Z,-3.3
2019-02-17T04:42:35.751Z,-3.3
2019-02-17T04:47:35.749Z,-3.3
2019-02-17T04:52:35.737Z,-3.4
2019-02-17T04:57:35.748Z,-3.4
2019-02-17T05:02:35.756Z,-3.5
2019-02-17T05:07:35.743Z,-3.5
2019-02-17T05:12:35.760Z,-3.6
2019-02-17T05:17:35.760Z,-3.6
2019-02-17T05:22:39.200Z,-3.6
2019-02-17T05:27:35.965Z,-3.6
2019-02-17T05:32:35.785Z,-3.7
2019-02-17T05:37:35.902Z,-3.7
2019-02-17T05:42:35.771Z,-3.8
2019-02-17T05:47:35.783Z,-3.8
2019-02-17T05:52:35.762Z,-3.8
2019-02-17T05:57:35.975Z,-3.8
2019-02-17T06:02:36.018Z,-3.8
2019-02-17T06:07:35.891Z,-3.8
2019-02-17T06:12:35.807Z,-3.8
2019-02-17T06:17:35.787Z,-3.9
2019-02-17T06:22:35.893Z,-3.9
2019-02-17T06:27:35.810Z,-3.9
2019-02-17T06:32:35.786Z,-3.9
2019-02-17T06:37:35.807Z,-3.8
2019-02-17T06:42:35.813Z,-3.6
2019-02-17T06:47:35.824Z,-3.5
2019-02-17T06:52:35.821Z,-3.3
2019-02-17T06:57:35.825Z,-3.1
2019-02-17T07:02:35.825Z,-2.9
2019-02-17T07:07:36.009Z,-2.7
2019-02-17T07:12:35.806Z,-2.4
2019-02-17T07:17:35.911Z,-2.2
2019-02-17T07:22:35.961Z,-1.9
2019-02-17T07:27:35.918Z,-1.6
2019-02-17T07:32:35.848Z,-1.5
2019-02-17T07:37:35.838Z,-1.1
2019-02-17T07:42:35.840Z,-0.8
2019-02-17T07:47:36.040Z,-0.6
2019-02-17T07:52:35.854Z,-0.2
2019-02-17T07:57:35.846Z,0
2019-02-17T08:02:36.038Z,0.3
2019-02-17T08:07:35.869Z,0.6
2019-02-17T08:12:35.856Z,0.9
2019-02-17T08:17:35.859Z,1.2
2019-02-17T08:22:35.876Z,1.4
2019-02-17T08:27:36.000Z,1.7
2019-02-17T08:32:35.903Z,2
2019-02-17T08:37:36.174Z,2.2
2019-02-17T08:42:35.858Z,2.4
2019-02-17T08:47:35.880Z,2.7
2019-02-17T08:52:35.862Z,2.9
2019-02-17T08:57:37.945Z,3.2
2019-02-17T09:02:35.867Z,3.4
2019-02-17T09:07:35.892Z,3.7
2019-02-17T09:12:36.002Z,4
2019-02-17T09:17:35.929Z,4.2
2019-02-17T09:22:36.068Z,4.4
2019-02-17T09:27:35.974Z,4.7
2019-02-17T09:32:35.989Z,4.9
2019-02-17T09:37:36.093Z,5.2
2019-02-17T09:42:35.906Z,5.4
2019-02-17T09:47:36.038Z,5.6
2019-02-17T09:52:35.915Z,5.9
2019-02-17T09:57:36.010Z,6.1
2019-02-17T10:02:36.007Z,6.3
2019-02-17T10:07:35.937Z,6.4
2019-02-17T10:12:35.873Z,6.6
2019-02-17T10:17:35.949Z,6.8
2019-02-17T10:22:35.926Z,7
2019-02-17T10:27:35.939Z,7
2019-02-17T10:32:38.434Z,7.1
2019-02-17T10:37:35.987Z,7.2
2019-02-17T10:42:35.973Z,7.5
2019-02-17T10:47:35.897Z,7.7
2019-02-17T10:52:35.932Z,7.8
2019-02-17T10:57:35.937Z,7.9
2019-02-17T11:02:35.946Z,8.1
2019-02-17T11:07:35.942Z,8.2
2019-02-17T11:12:36.048Z,8.2
2019-02-17T11:17:35.917Z,8.4
2019-02-17T11:22:35.967Z,8.5
2019-02-17T11:27:35.969Z,8.6
2019-02-17T11:32:35.985Z,8.6
2019-02-17T11:37:35.966Z,8.7
2019-02-17T11:42:35.978Z,8.9
2019-02-17T11:47:35.973Z,9
2019-02-17T11:52:35.981Z,9
2019-02-17T11:57:35.934Z,9.2
2019-02-17T12:02:36.005Z,9.3
2019-02-17T12:07:36.135Z,9.5
2019-02-17T12:12:35.966Z,9.6
2019-02-17T12:17:36.047Z,9.8
2019-02-17T12:22:35.984Z,9.8
2019-02-17T12:27:36.004Z,9.9
2019-02-17T12:32:36.002Z,10.1
2019-02-17T12:37:35.991Z,10.2
2019-02-17T12:42:36.319Z,10.3
2019-02-17T12:47:36.006Z,10.4
2019-02-17T12:52:35.996Z,10.5
2019-02-17T12:57:36.025Z,10.7
2019-02-17T13:02:36.024Z,10.7
2019-02-17T13:07:36.027Z,10.7
2019-02-17T13:12:36.085Z,10.8
2019-02-17T13:17:36.005Z,10.9
2019-02-17T13:22:36.045Z,10.9
2019-02-17T13:27:36.017Z,11
2019-02-17T13:32:36.035Z,11
2019-02-17T13:37:36.079Z,11.1
2019-02-17T13:42:36.056Z,11.1
2019-02-17T13:47:36.002Z,11.2
2019-02-17T13:52:36.059Z,11.2
2019-02-17T13:57:36.164Z,11.3
2019-02-17T14:02:36.152Z,11.3
2019-02-17T14:07:36.184Z,11.4
2019-02-17T14:12:36.122Z,11.3
2019-02-17T14:17:36.064Z,11.4
2019-02-17T14:22:36.006Z,11.4
2019-02-17T14:27:36.037Z,11.4
2019-02-17T14:32:36.093Z,11.4
2019-02-17T14:37:36.038Z,11.3
2019-02-17T14:42:36.061Z,11.3
2019-02-17T14:47:36.060Z,11.3
2019-02-17T14:52:36.079Z,11.3
2019-02-17T14:57:36.209Z,11.2
2019-02-17T15:02:36.077Z,11.2
2019-02-17T15:07:36.112Z,11.1
2019-02-17T15:12:36.078Z,11
2019-02-17T15:17:36.082Z,11
2019-02-17T15:22:36.068Z,10.9
2019-02-17T15:27:36.094Z,10.8
2019-02-17T15:32:36.075Z,10.8
2019-02-17T15:37:36.099Z,10.7
2019-02-17T15:42:36.123Z,10.5
2019-02-17T15:47:36.128Z,10.3
2019-02-17T15:52:36.119Z,10.2
2019-02-17T15:57:36.107Z,10
2019-02-17T16:02:36.198Z,9.8
2019-02-17T16:07:36.437Z,9.6
2019-02-17T16:12:36.080Z,9.3
2019-02-17T16:17:36.133Z,9
2019-02-17T16:22:37.263Z,8.8
2019-02-17T16:27:36.509Z,8.4
2019-02-17T16:32:36.350Z,8.2
2019-02-17T16:37:36.224Z,7.8
2019-02-17T16:42:36.652Z,7.5
2019-02-17T16:47:36.126Z,7.3
2019-02-17T16:52:36.438Z,7
2019-02-17T16:57:37.197Z,6.8
2019-02-17T17:02:36.180Z,6.5
2019-02-17T17:07:36.159Z,6.2
2019-02-17T17:12:36.150Z,5.9
2019-02-17T17:17:37.017Z,5.7
2019-02-17T17:22:36.152Z,5.5
2019-02-17T17:27:36.160Z,5.3
2019-02-17T17:32:36.135Z,5
2019-02-17T17:37:36.143Z,4.8
2019-02-17T17:42:36.157Z,4.6
2019-02-17T17:47:36.172Z,4.4
2019-02-17T17:52:36.173Z,4.3
2019-02-17T17:57:36.119Z,4.1
2019-02-17T18:02:36.182Z,4
2019-02-17T18:07:36.185Z,3.9
2019-02-17T18:12:36.295Z,3.7
2019-02-17T18:17:36.280Z,3.6
2019-02-17T18:22:36.557Z,3.4
2019-02-17T18:27:36.184Z,3.3
2019-02-17T18:32:36.196Z,3.2
2019-02-17T18:37:36.251Z,3
2019-02-17T18:42:36.559Z,2.9
2019-02-17T18:47:37.472Z,2.8
2019-02-17T18:52:36.198Z,2.7
2019-02-17T18:57:36.436Z,2.5
2019-02-17T19:02:36.340Z,2.4
2019-02-17T19:07:36.408Z,2.3
2019-02-17T19:12:36.202Z,2.2
2019-02-17T19:17:36.242Z,2.1
2019-02-17T19:22:36.368Z,2
2019-02-17T19:27:36.285Z,1.9
2019-02-17T19:32:36.228Z,1.8
2019-02-17T19:37:36.506Z,1.7
2019-02-17T19:42:36.427Z,1.6
2019-02-17T19:47:36.314Z,1.5
2019-02-17T19:52:36.189Z,1.4
2019-02-17T19:57:36.257Z,1.3
2019-02-17T20:02:36.295Z,1.3
2019-02-17T20:07:37.397Z,1.2
2019-02-17T20:12:36.244Z,1.1
2019-02-17T20:17:36.236Z,1.1
2019-02-17T20:22:36.472Z,1
2019-02-17T20:27:36.298Z,0.9
2019-02-17T20:32:36.396Z,0.8
2019-02-17T20:37:36.714Z,0.7
2019-02-17T20:42:36.248Z,0.6
2019-02-17T20:47:36.389Z,0.5
2019-02-17T20:52:36.261Z,0.5
2019-02-17T20:57:36.243Z,0.5
2019-02-17T21:02:36.315Z,0.4
2019-02-17T21:07:36.263Z,0.4
2019-02-17T21:12:36.261Z,0.3
2019-02-17T21:17:36.344Z,0.3
2019-02-17T21:22:36.277Z,0.2
2019-02-17T21:27:36.285Z,0.2
2019-02-17T21:32:36.431Z,0.1
2019-02-17T21:37:36.263Z,0.1
2019-02-17T21:42:36.293Z,0
2019-02-17T21:47:36.423Z,0
2019-02-17T21:52:36.277Z,0
2019-02-17T21:57:36.276Z,0
2019-02-17T22:02:36.426Z,-0.1
2019-02-17T22:07:36.294Z,-0.1
2019-02-17T22:12:36.505Z,-0.2
2019-02-17T22:17:36.554Z,-0.2
2019-02-17T22:22:36.292Z,-0.3
2019-02-17T22:27:36.353Z,-0.3
2019-02-17T22:32:36.305Z,-0.4
2019-02-17T22:37:36.314Z,-0.4
2019-02-17T22:42:36.306Z,-0.5
2019-02-17T22:47:36.318Z,-0.5
2019-02-17T22:52:36.309Z,-0.6
2019-02-17T22:57:36.318Z,-0.6
2019-02-17T23:02:36.336Z,-0.7
2019-02-17T23:07:36.435Z,-0.7
2019-02-17T23:12:36.497Z,-0.7
2019-02-17T23:17:36.313Z,-0.8
2019-02-17T23:22:36.312Z,-0.9
2019-02-17T23:27:36.505Z,-0.9
2019-02-17T23:32:36.540Z,-1
2019-02-17T23:37:36.464Z,-1
2019-02-17T23:42:36.503Z,-1
2019-02-17T23:47:36.371Z,-1
2019-02-17T23:52:37.388Z,-1.1
2019-02-17T23:57:36.505Z,-1.1
